Time;durP1;ratioP1;P1;durP2;ratioP2;P2;SDS_P1;SDS_P2;PMS_P1;PMS_P2;Temp;Humidity;BMP_temperature;BMP_pressure;BME280_temperature;BME280_humidity;BME280_pressure;Samples;Min_cycle;Max_cycle;Signal;HPM_P1;HPM_P2
2023/04/20 00:01:53;;;;;;;8.30;2.33;;;8.40;99.00;;;;;;5063151;28;20410;-70
2023/04/20 00:04:20;;;;;;;7.82;2.65;;;8.40;98.80;;;;;;5064071;28;20131;-66
2023/04/20 00:06:46;;;;;;;11.18;2.50;;;8.50;98.50;;;;;;5067087;28;20040;-68
2023/04/20 00:09:13;;;;;;;11.68;2.88;;;8.40;98.50;;;;;;5058803;28;20047;-67
2023/04/20 00:11:39;;;;;;;8.00;2.88;;;8.50;98.60;;;;;;5070689;28;20040;-67
2023/04/20 00:14:05;;;;;;;9.15;2.80;;;8.50;98.50;;;;;;5069579;28;20682;-67
2023/04/20 00:16:32;;;;;;;7.50;2.90;;;8.50;98.70;;;;;;5050726;28;20090;-69
2023/04/20 00:18:59;;;;;;;5.35;2.05;;;8.50;98.60;;;;;;5050510;28;20128;-66
2023/04/20 00:21:25;;;;;;;9.55;2.65;;;8.50;98.70;;;;;;5050150;28;20632;-65
2023/04/20 00:23:50;;;;;;;7.18;2.42;;;8.50;98.80;;;;;;5067050;28;20173;-66
2023/04/20 00:26:17;;;;;;;7.68;2.40;;;8.50;98.70;;;;;;5066950;28;20075;-69
2023/04/20 00:28:44;;;;;;;8.98;2.72;;;8.50;98.80;;;;;;5050512;28;20041;-70
2023/04/20 00:31:10;;;;;;;7.88;2.80;;;8.60;99.10;;;;;;5050294;28;20095;-66
2023/04/20 00:33:38;;;;;;;8.88;3.38;;;8.50;99.00;;;;;;5050096;28;20047;-65
2023/04/20 00:36:04;;;;;;;10.15;2.97;;;8.60;99.10;;;;;;5050488;28;20036;-66
2023/04/20 00:38:30;;;;;;;6.45;2.03;;;8.60;99.10;;;;;;5050002;28;20048;-68
2023/04/20 00:40:57;;;;;;;8.95;2.67;;;8.60;99.10;;;;;;5050173;28;20421;-70
2023/04/20 00:43:23;;;;;;;8.00;2.67;;;8.60;99.10;;;;;;5049865;28;20024;-66
2023/04/20 00:45:50;;;;;;;11.05;2.25;;;8.60;99.20;;;;;;5049928;28;20037;-65
2023/04/20 00:48:17;;;;;;;6.45;2.30;;;8.60;99.30;;;;;;5049987;28;20684;-69
2023/04/20 00:50:44;;;;;;;11.25;2.70;;;8.60;99.60;;;;;;5066588;28;20177;-67
2023/04/20 00:53:11;;;;;;;7.28;2.45;;;8.60;99.40;;;;;;5060654;28;20423;-66
2023/04/20 00:55:38;;;;;;;7.28;2.22;;;8.70;99.60;;;;;;5066261;28;20547;-68
2023/04/20 00:58:04;;;;;;;8.50;2.45;;;8.60;99.60;;;;;;5048994;28;20052;-69
2023/04/20 01:00:30;;;;;;;7.22;2.50;;;8.60;99.80;;;;;;5047788;28;20044;-68
2023/04/20 01:02:56;;;;;;;12.05;2.95;;;8.60;99.80;;;;;;5069834;28;20495;-74
2023/04/20 01:05:22;;;;;;;8.60;2.35;;;8.70;99.80;;;;;;5058317;28;20039;-67
2023/04/20 01:07:49;;;;;;;8.95;2.63;;;8.60;99.90;;;;;;5086211;28;20036;-68
2023/04/20 01:10:15;;;;;;;7.97;2.88;;;8.60;99.90;;;;;;5066085;28;20399;-67
2023/04/20 01:12:41;;;;;;;6.38;2.65;;;8.60;99.90;;;;;;5052538;28;20036;-66
2023/04/20 01:15:07;;;;;;;8.00;2.78;;;8.60;99.90;;;;;;5069224;28;20051;-66
2023/04/20 01:17:38;;;;;;;8.02;2.33;;;8.50;99.90;;;;;;5062837;28;20072;-65
2023/04/20 01:20:13;;;;;;;7.88;2.45;;;8.50;99.90;;;;;;5051795;28;20048;-66
2023/04/20 01:22:47;;;;;;;7.18;2.22;;;8.50;99.90;;;;;;5049439;28;20341;-65
2023/04/20 01:25:15;;;;;;;8.85;2.33;;;8.50;99.90;;;;;;5049160;28;20405;-65
2023/04/20 01:27:41;;;;;;;8.05;2.42;;;8.50;99.90;;;;;;5049214;28;20071;-65
2023/04/20 01:30:07;;;;;;;8.43;2.42;;;8.50;99.90;;;;;;5048839;28;20561;-66
2023/04/20 01:32:33;;;;;;;9.73;2.53;;;8.50;99.90;;;;;;5049430;28;20044;-68
2023/04/20 01:35:00;;;;;;;8.60;2.70;;;8.40;99.90;;;;;;5049272;28;20048;-65
2023/04/20 01:37:26;;;;;;;7.78;2.72;;;8.40;99.90;;;;;;5048956;28;20181;-67
2023/04/20 01:39:52;;;;;;;10.18;2.67;;;8.40;99.90;;;;;;5048057;28;20082;-68
2023/04/20 01:42:18;;;;;;;6.40;2.28;;;8.30;99.90;;;;;;5048965;28;20036;-65
2023/04/20 01:44:44;;;;;;;9.48;2.60;;;8.30;99.90;;;;;;5064838;28;20064;-67
2023/04/20 01:47:10;;;;;;;7.38;2.50;;;8.30;99.90;;;;;;5049340;28;20052;-68
2023/04/20 01:49:36;;;;;;;9.13;2.60;;;8.20;99.90;;;;;;5048292;28;20047;-69
2023/04/20 01:52:02;;;;;;;6.85;2.63;;;8.20;99.90;;;;;;5049150;28;20040;-66
2023/04/20 01:54:28;;;;;;;9.48;2.78;;;8.20;99.90;;;;;;5050464;28;20392;-67
2023/04/20 01:56:54;;;;;;;7.80;2.72;;;8.10;99.90;;;;;;5048804;28;20080;-68
2023/04/20 01:59:20;;;;;;;8.75;2.90;;;8.10;99.90;;;;;;5048250;28;20055;-66
2023/04/20 02:01:45;;;;;;;16.13;2.50;;;8.00;99.90;;;;;;5051883;28;20032;-64
2023/04/20 02:04:14;;;;;;;9.95;2.70;;;8.00;99.90;;;;;;5059052;28;20087;-67
2023/04/20 02:06:40;;;;;;;9.05;2.97;;;7.90;99.90;;;;;;5048402;28;20094;-65
2023/04/20 02:09:08;;;;;;;9.73;2.40;;;7.80;99.90;;;;;;5055016;28;20458;-67
2023/04/20 02:11:34;;;;;;;7.15;2.53;;;7.80;99.90;;;;;;5068316;28;20044;-68
2023/04/20 02:14:00;;;;;;;7.63;2.28;;;7.70;99.90;;;;;;5068569;28;20133;-67
2023/04/20 02:16:28;;;;;;;9.90;2.60;;;7.60;99.90;;;;;;5065154;28;20459;-69
2023/04/20 02:18:55;;;;;;;9.25;2.83;;;7.70;99.90;;;;;;5048269;28;20041;-68
2023/04/20 02:21:21;;;;;;;10.25;2.85;;;7.70;99.90;;;;;;5048263;28;20097;-69
2023/04/20 02:23:47;;;;;;;7.30;2.33;;;7.70;99.90;;;;;;5048170;28;20495;-66
2023/04/20 02:26:22;;;;;;;14.98;2.95;;;7.70;99.90;;;;;;5047822;28;20037;-65
2023/04/20 02:28:48;;;;;;;12.73;3.05;;;7.70;99.90;;;;;;5047727;28;20131;-68
2023/04/20 02:31:17;;;;;;;10.13;2.80;;;7.70;99.90;;;;;;5064618;28;20067;-66
2023/04/20 02:33:43;;;;;;;10.95;2.70;;;7.80;99.90;;;;;;5048341;28;20032;-68
2023/04/20 02:36:09;;;;;;;7.13;2.70;;;7.80;99.90;;;;;;5064392;28;20113;-68
2023/04/20 02:38:35;;;;;;;7.93;2.33;;;7.80;99.90;;;;;;5047653;28;20725;-69
2023/04/20 02:41:00;;;;;;;9.07;3.15;;;7.90;99.90;;;;;;5047372;28;20037;-67
2023/04/20 02:43:26;;;;;;;8.30;3.28;;;7.90;99.90;;;;;;5047555;28;20131;-69
2023/04/20 02:45:52;;;;;;;10.73;3.17;;;8.00;99.90;;;;;;5047616;28;20044;-65
2023/04/20 02:48:18;;;;;;;10.43;2.70;;;8.00;99.90;;;;;;5047818;28;20090;-67
2023/04/20 02:50:43;;;;;;;7.75;2.65;;;8.10;99.90;;;;;;5064286;28;20040;-72
2023/04/20 02:53:09;;;;;;;16.30;3.03;;;8.10;99.90;;;;;;5065378;28;20102;-71
2023/04/20 02:55:35;;;;;;;10.05;2.90;;;8.20;99.90;;;;;;5047469;28;20041;-65
2023/04/20 02:58:01;;;;;;;6.88;2.40;;;8.20;99.90;;;;;;5051400;28;20048;-67
2023/04/20 03:00:27;;;;;;;7.80;2.60;;;8.30;99.90;;;;;;5047099;28;20245;-69
2023/04/20 03:02:53;;;;;;;13.32;2.90;;;8.30;98.80;;;;;;5064482;28;20087;-69
2023/04/20 03:05:18;;;;;;;9.90;2.95;;;8.40;98.10;;;;;;5047774;28;20063;-70
2023/04/20 03:07:44;;;;;;;6.18;2.63;;;8.40;98.20;;;;;;5047459;28;20035;-70
2023/04/20 03:10:10;;;;;;;9.98;3.22;;;8.40;97.30;;;;;;5047055;28;20048;-70
2023/04/20 03:12:36;;;;;;;7.38;2.47;;;8.50;97.00;;;;;;5063930;28;20125;-67
2023/04/20 03:15:05;;;;;;;8.20;3.00;;;8.40;97.00;;;;;;5063483;28;20118;-66
2023/04/20 03:17:31;;;;;;;8.40;2.60;;;8.40;96.60;;;;;;5064149;28;20392;-67
2023/04/20 03:19:56;;;;;;;8.00;2.70;;;8.40;96.70;;;;;;5047097;28;20094;-67
2023/04/20 03:22:22;;;;;;;10.18;2.97;;;8.40;96.40;;;;;;5047332;28;20036;-67
2023/04/20 03:24:48;;;;;;;7.35;2.70;;;8.40;96.10;;;;;;5046590;28;20075;-67
2023/04/20 03:27:14;;;;;;;7.53;2.80;;;8.40;96.10;;;;;;5047179;28;20399;-68
2023/04/20 03:29:40;;;;;;;13.35;2.70;;;8.40;95.90;;;;;;5047006;28;20357;-68
2023/04/20 03:32:06;;;;;;;7.57;2.78;;;8.40;95.50;;;;;;5046987;28;20037;-66
2023/04/20 03:34:32;;;;;;;9.13;2.65;;;8.50;95.70;;;;;;5058815;28;20378;-67
2023/04/20 03:36:57;;;;;;;10.35;2.90;;;8.40;95.70;;;;;;5047180;28;20565;-69
2023/04/20 03:39:23;;;;;;;7.20;2.53;;;8.40;95.90;;;;;;5057367;28;20323;-66
2023/04/20 03:41:49;;;;;;;10.27;2.65;;;8.40;95.80;;;;;;5087952;28;20193;-64
2023/04/20 03:44:15;;;;;;;8.60;2.40;;;8.40;95.40;;;;;;5077547;28;20037;-67
2023/04/20 03:46:41;;;;;;;9.27;2.80;;;8.40;95.20;;;;;;5051602;28;20491;-66
2023/04/20 03:49:07;;;;;;;6.82;2.65;;;8.40;94.90;;;;;;5067713;28;20101;-69
2023/04/20 03:51:33;;;;;;;7.38;2.70;;;8.40;94.60;;;;;;5051215;28;20051;-69
2023/04/20 03:53:59;;;;;;;11.25;2.70;;;8.40;94.60;;;;;;5070080;28;20048;-69
2023/04/20 03:56:26;;;;;;;7.10;2.45;;;8.40;94.80;;;;;;5050909;28;20068;-66
2023/04/20 03:58:52;;;;;;;10.73;2.65;;;8.40;95.20;;;;;;5067724;28;20131;-70
2023/04/20 04:01:17;;;;;;;9.50;2.83;;;8.40;95.30;;;;;;5070788;28;20138;-64
2023/04/20 04:03:43;;;;;;;9.73;2.60;;;8.30;95.60;;;;;;5082840;28;20409;-67
2023/04/20 04:06:10;;;;;;;9.98;2.63;;;8.30;95.60;;;;;;5067660;28;20533;-70
2023/04/20 04:08:36;;;;;;;8.90;2.75;;;8.30;95.70;;;;;;5050791;28;20040;-69
2023/04/20 04:11:01;;;;;;;7.00;2.35;;;8.20;95.50;;;;;;5067451;28;20055;-66
2023/04/20 04:13:27;;;;;;;8.85;2.60;;;8.20;95.80;;;;;;5051010;28;20036;-69
2023/04/20 04:15:53;;;;;;;5.97;2.47;;;8.20;95.60;;;;;;5067201;28;20159;-69
2023/04/20 04:18:20;;;;;;;9.32;2.88;;;8.20;95.90;;;;;;5050778;28;20052;-72
2023/04/20 04:20:46;;;;;;;11.55;2.97;;;8.20;96.00;;;;;;5050577;28;20785;-66
2023/04/20 04:23:12;;;;;;;10.52;2.67;;;8.10;96.10;;;;;;5050659;28;20055;-67
2023/04/20 04:25:41;;;;;;;8.85;2.33;;;8.10;95.70;;;;;;5082818;28;20051;-73
2023/04/20 04:28:07;;;;;;;7.32;2.33;;;8.10;95.90;;;;;;5050761;28;20043;-70
2023/04/20 04:30:32;;;;;;;6.05;2.33;;;8.10;95.80;;;;;;5066931;28;20040;-71
2023/04/20 04:32:58;;;;;;;12.48;2.42;;;8.10;95.90;;;;;;5050611;28;20048;-69
2023/04/20 04:35:25;;;;;;;9.25;2.30;;;8.10;96.10;;;;;;5067022;28;20503;-68
2023/04/20 04:37:54;;;;;;;11.68;3.20;;;8.00;96.00;;;;;;5050549;28;20047;-71
2023/04/20 04:40:20;;;;;;;8.57;2.22;;;8.00;96.40;;;;;;5049892;28;20620;-66
2023/04/20 04:42:47;;;;;;;8.35;2.33;;;8.00;96.30;;;;;;5066720;28;20080;-66
2023/04/20 04:45:13;;;;;;;12.65;2.30;;;8.00;96.30;;;;;;5049969;28;20127;-67
2023/04/20 04:47:41;;;;;;;9.35;3.22;;;8.00;96.20;;;;;;5050061;28;20079;-68
2023/04/20 04:50:08;;;;;;;9.82;2.47;;;7.90;97.50;;;;;;5082383;28;20044;-68
2023/04/20 04:52:34;;;;;;;7.22;2.53;;;7.80;98.00;;;;;;5086894;28;20122;-69
2023/04/20 04:55:00;;;;;;;7.70;2.53;;;7.70;99.60;;;;;;5051962;28;20143;-68
2023/04/20 04:57:26;;;;;;;12.18;3.15;;;7.50;99.90;;;;;;5066471;28;20052;-66
2023/04/20 04:59:52;;;;;;;12.13;2.65;;;7.40;99.90;;;;;;5049562;28;20044;-67
2023/04/20 05:02:18;;;;;;;7.63;2.58;;;7.30;99.90;;;;;;5049580;28;20052;-66
2023/04/20 05:04:44;;;;;;;7.95;2.83;;;7.10;99.90;;;;;;5049819;28;20442;-68
2023/04/20 05:07:14;;;;;;;8.98;3.00;;;7.00;99.90;;;;;;5050093;28;20169;-69
2023/04/20 05:09:40;;;;;;;10.73;3.03;;;6.90;99.90;;;;;;5059771;28;20036;-70
2023/04/20 05:12:06;;;;;;;9.88;3.08;;;6.90;99.90;;;;;;5069810;28;20149;-67
2023/04/20 05:14:32;;;;;;;11.77;2.97;;;6.80;99.90;;;;;;5069166;28;20069;-67
2023/04/20 05:16:59;;;;;;;8.60;3.03;;;6.80;99.90;;;;;;5069381;28;20134;-64
2023/04/20 05:19:25;;;;;;;8.65;3.45;;;6.80;99.90;;;;;;5075926;28;20036;-65
2023/04/20 05:21:50;;;;;;;7.07;2.80;;;6.70;99.90;;;;;;5056616;28;20067;-67
2023/04/20 05:24:18;;;;;;;10.55;3.28;;;6.70;99.90;;;;;;5075471;28;20518;-70
2023/04/20 05:26:45;;;;;;;8.07;3.13;;;6.70;99.90;;;;;;5058206;28;20043;-70
2023/04/20 05:29:11;;;;;;;9.55;3.03;;;6.70;99.90;;;;;;5057719;28;20043;-68
2023/04/20 05:31:37;;;;;;;10.90;3.35;;;6.70;99.90;;;;;;5062335;28;20491;-67
2023/04/20 05:34:05;;;;;;;12.38;3.63;;;6.70;99.90;;;;;;5059440;28;20036;-68
2023/04/20 05:36:32;;;;;;;6.95;3.00;;;6.70;99.90;;;;;;5055746;28;20461;-67
2023/04/20 05:38:58;;;;;;;10.07;3.60;;;6.70;99.90;;;;;;5064193;28;20048;-69
2023/04/20 05:41:26;;;;;;;9.93;3.08;;;6.70;99.90;;;;;;5076260;28;20412;-70
2023/04/20 05:43:53;;;;;;;8.27;3.30;;;6.60;99.90;;;;;;5074374;28;20045;-70
2023/04/20 05:46:19;;;;;;;12.07;3.33;;;6.60;99.90;;;;;;5058878;28;20036;-71
2023/04/20 05:48:45;;;;;;;11.70;2.85;;;6.60;99.90;;;;;;5059753;28;20189;-69
2023/04/20 05:51:12;;;;;;;11.23;3.17;;;6.60;99.90;;;;;;5057816;28;20047;-66
2023/04/20 05:53:37;;;;;;;10.80;3.08;;;6.60;99.90;;;;;;5076125;28;20052;-67
2023/04/20 05:56:03;;;;;;;10.20;3.28;;;6.60;99.90;;;;;;5057759;28;20043;-68
2023/04/20 05:58:31;;;;;;;12.95;3.97;;;6.60;99.90;;;;;;5072424;28;20063;-69
2023/04/20 06:00:57;;;;;;;9.25;3.75;;;6.60;99.90;;;;;;5054979;28;20247;-68
2023/04/20 06:03:23;;;;;;;12.20;3.63;;;6.60;99.90;;;;;;5048157;28;20036;-69
2023/04/20 06:05:56;;;;;;;8.88;3.47;;;6.60;99.90;;;;;;5048435;28;20127;-69
2023/04/20 06:08:22;;;;;;;8.37;3.33;;;6.60;99.90;;;;;;5060164;28;20040;-66
2023/04/20 06:10:52;;;;;;;10.40;3.13;;;6.60;99.90;;;;;;5064238;28;20049;-64
2023/04/20 06:13:17;;;;;;;8.63;3.45;;;6.60;99.90;;;;;;5050656;28;20048;-62
2023/04/20 06:15:43;;;;;;;11.98;3.05;;;6.60;99.90;;;;;;5067594;28;20451;-63
2023/04/20 06:18:09;;;;;;;10.10;3.00;;;6.60;99.90;;;;;;5085241;28;20494;-61
2023/04/20 06:20:35;;;;;;;8.77;3.22;;;6.60;99.90;;;;;;5064804;28;20040;-61
2023/04/20 06:23:01;;;;;;;10.55;3.20;;;6.60;99.90;;;;;;5048463;28;20087;-61
2023/04/20 06:25:27;;;;;;;8.45;3.05;;;6.60;99.90;;;;;;5065033;28;20273;-64
2023/04/20 06:27:52;;;;;;;8.52;3.08;;;6.60;99.90;;;;;;5068599;28;20460;-63
2023/04/20 06:30:18;;;;;;;9.27;3.33;;;6.50;99.90;;;;;;5077540;28;20076;-62
2023/04/20 06:32:44;;;;;;;8.95;2.97;;;6.50;99.90;;;;;;5082828;28;20131;-62
2023/04/20 06:35:10;;;;;;;9.88;3.60;;;6.40;99.90;;;;;;5068156;28;20131;-62
2023/04/20 06:37:37;;;;;;;9.00;3.13;;;6.40;99.90;;;;;;5066368;28;20444;-61
2023/04/20 06:40:07;;;;;;;7.53;2.78;;;6.40;99.90;;;;;;5065522;28;20407;-62
2023/04/20 06:42:33;;;;;;;8.00;3.78;;;6.40;99.90;;;;;;5048024;28;20078;-63
2023/04/20 06:44:59;;;;;;;11.18;3.10;;;6.40;99.90;;;;;;5047826;28;20051;-62
2023/04/20 06:47:32;;;;;;;7.85;3.00;;;6.40;99.90;;;;;;5058204;28;20036;-61
2023/04/20 06:50:03;;;;;;;10.32;3.22;;;6.40;99.90;;;;;;5069637;28;20399;-63
2023/04/20 06:52:32;;;;;;;9.13;3.47;;;6.30;99.90;;;;;;5066149;28;20044;-61
2023/04/20 06:54:59;;;;;;;8.48;3.10;;;6.20;99.90;;;;;;5078387;28;20054;-61
2023/04/20 06:57:25;;;;;;;10.10;3.45;;;6.20;99.90;;;;;;5086057;28;20480;-63
2023/04/20 06:59:50;;;;;;;9.80;3.97;;;6.10;99.90;;;;;;5067223;28;20139;-62
2023/04/20 07:02:16;;;;;;;7.85;3.80;;;6.10;99.90;;;;;;5067019;28;20050;-62
2023/04/20 07:04:42;;;;;;;10.27;3.72;;;6.00;99.90;;;;;;5065960;28;20052;-63
2023/04/20 07:07:08;;;;;;;11.18;3.65;;;6.00;99.90;;;;;;5047564;28;20045;-63
2023/04/20 07:09:34;;;;;;;9.90;3.35;;;6.00;99.90;;;;;;5063729;28;20056;-62
2023/04/20 07:12:00;;;;;;;10.98;4.22;;;5.90;99.90;;;;;;5064204;28;20127;-63
2023/04/20 07:14:26;;;;;;;11.57;3.83;;;5.90;99.90;;;;;;5046286;28;20032;-62
2023/04/20 07:16:53;;;;;;;10.45;3.80;;;5.80;99.90;;;;;;5047313;28;20044;-62
2023/04/20 07:19:18;;;;;;;10.68;3.70;;;5.80;99.90;;;;;;5047038;28;20123;-63
2023/04/20 07:21:45;;;;;;;9.63;4.10;;;5.70;99.90;;;;;;5047365;28;20123;-63
2023/04/20 07:24:11;;;;;;;12.55;4.10;;;5.70;99.90;;;;;;5063840;28;20036;-62
2023/04/20 07:26:37;;;;;;;10.13;3.88;;;5.80;99.90;;;;;;5064077;28;20170;-63
2023/04/20 07:29:04;;;;;;;8.70;3.97;;;5.80;99.90;;;;;;5052021;28;20052;-61
2023/04/20 07:31:29;;;;;;;9.50;3.95;;;5.80;99.90;;;;;;5050669;28;20055;-61
2023/04/20 07:33:55;;;;;;;10.25;3.88;;;5.90;99.90;;;;;;5078356;28;20059;-62
2023/04/20 07:36:21;;;;;;;11.38;4.25;;;6.00;99.90;;;;;;5047420;28;20616;-61
2023/04/20 07:38:48;;;;;;;8.48;3.78;;;6.00;99.90;;;;;;5047245;28;20212;-61
2023/04/20 07:41:15;;;;;;;8.05;3.75;;;6.00;99.90;;;;;;5047007;28;20163;-62
2023/04/20 07:43:41;;;;;;;10.80;4.43;;;6.00;99.90;;;;;;5063602;28;20044;-62
2023/04/20 07:46:07;;;;;;;10.10;4.45;;;6.00;99.90;;;;;;5063546;28;20048;-63
2023/04/20 07:48:34;;;;;;;12.07;4.63;;;6.00;99.90;;;;;;5063411;28;20040;-62
2023/04/20 07:51:00;;;;;;;8.95;4.30;;;6.00;99.90;;;;;;5046930;28;20049;-61
2023/04/20 07:53:27;;;;;;;10.15;3.90;;;6.00;99.90;;;;;;5050243;28;20058;-63
2023/04/20 07:55:53;;;;;;;8.65;4.38;;;6.00;99.90;;;;;;5046884;28;20102;-62
2023/04/20 07:58:20;;;;;;;12.15;4.53;;;6.00;99.90;;;;;;5046779;28;20670;-62
2023/04/20 08:00:46;;;;;;;11.35;4.38;;;6.00;99.90;;;;;;5046298;28;20048;-62
2023/04/20 08:03:16;;;;;;;13.07;4.35;;;6.00;99.90;;;;;;5063722;28;20496;-62
2023/04/20 08:05:41;;;;;;;8.05;3.95;;;6.10;99.90;;;;;;5064165;28;20331;-61
2023/04/20 08:08:07;;;;;;;9.30;3.88;;;6.10;99.90;;;;;;5046816;28;20083;-62
2023/04/20 08:10:33;;;;;;;8.82;4.10;;;6.20;99.90;;;;;;5063481;28;20076;-61
2023/04/20 08:12:59;;;;;;;9.45;4.22;;;6.20;99.90;;;;;;5063614;28;20460;-62
2023/04/20 08:15:25;;;;;;;8.35;3.90;;;6.30;99.90;;;;;;5064860;28;20041;-63
2023/04/20 08:17:51;;;;;;;8.18;4.20;;;6.40;99.90;;;;;;5047095;28;20048;-61
2023/04/20 08:20:18;;;;;;;7.90;3.60;;;6.40;99.90;;;;;;5079107;28;20230;-62
2023/04/20 08:22:44;;;;;;;12.60;3.97;;;6.40;99.90;;;;;;5083694;28;20047;-62
2023/04/20 08:25:10;;;;;;;9.15;4.32;;;6.50;99.90;;;;;;5051633;28;20040;-60
2023/04/20 08:27:36;;;;;;;8.95;4.75;;;6.50;99.90;;;;;;5050692;28;20135;-61
2023/04/20 08:30:03;;;;;;;11.43;4.70;;;6.60;99.90;;;;;;5068252;28;20336;-61
2023/04/20 08:32:29;;;;;;;9.43;4.35;;;6.70;99.90;;;;;;5067070;28;20080;-63
2023/04/20 08:34:55;;;;;;;12.20;4.50;;;6.80;99.90;;;;;;5053345;28;20476;-61
2023/04/20 08:37:21;;;;;;;10.60;4.70;;;6.70;99.90;;;;;;5087163;28;20135;-61
2023/04/20 08:39:46;;;;;;;10.68;4.63;;;6.70;99.90;;;;;;5086852;28;20443;-60
2023/04/20 08:42:12;;;;;;;12.57;5.40;;;6.70;99.90;;;;;;5087203;28;20040;-61
2023/04/20 08:44:38;;;;;;;11.63;4.80;;;6.60;99.90;;;;;;5086913;28;20511;-62
2023/04/20 08:47:04;;;;;;;14.48;5.30;;;6.60;99.90;;;;;;5086947;28;20127;-61
2023/04/20 08:49:31;;;;;;;11.82;5.72;;;6.60;99.90;;;;;;5065397;28;20399;-63
2023/04/20 08:51:57;;;;;;;13.05;5.45;;;6.60;99.90;;;;;;5087179;28;20063;-63
2023/04/20 08:54:23;;;;;;;10.73;4.82;;;6.70;99.90;;;;;;5068183;28;20044;-63
2023/04/20 08:56:49;;;;;;;10.77;4.70;;;6.80;99.90;;;;;;5087137;28;20047;-62
2023/04/20 08:59:15;;;;;;;10.65;5.20;;;6.80;99.90;;;;;;5057894;28;20071;-62
2023/04/20 09:01:42;;;;;;;12.10;5.32;;;7.00;99.90;;;;;;5066418;28;20071;-62
2023/04/20 09:04:35;;;;;;;12.90;5.32;;;7.00;99.90;;;;;;5049627;28;20047;-63
2023/04/20 09:07:01;;;;;;;13.25;6.00;;;7.10;99.90;;;;;;5062715;28;20060;-62
2023/04/20 09:09:27;;;;;;;12.48;5.15;;;7.10;99.90;;;;;;5066480;28;20514;-62
2023/04/20 09:12:01;;;;;;;12.23;5.50;;;7.20;99.90;;;;;;5049628;28;20040;-62
2023/04/20 09:14:28;;;;;;;10.95;5.30;;;7.20;99.90;;;;;;5066344;28;20040;-61
2023/04/20 09:17:00;;;;;;;13.25;5.85;;;7.30;99.90;;;;;;5066556;28;20037;-64
2023/04/20 09:19:27;;;;;;;14.32;6.07;;;7.40;99.90;;;;;;5075808;28;20060;-61
2023/04/20 09:22:02;;;;;;;12.00;5.50;;;7.70;99.90;;;;;;5086075;28;20403;-62
2023/04/20 09:24:33;;;;;;;13.15;5.63;;;7.80;99.90;;;;;;5078204;28;20112;-62
2023/04/20 09:27:00;;;;;;;12.43;6.00;;;7.70;99.90;;;;;;5049452;28;20044;-63
2023/04/20 09:29:27;;;;;;;14.55;5.97;;;7.60;99.90;;;;;;5048955;28;20044;-62
2023/04/20 09:31:54;;;;;;;9.30;5.32;;;7.50;99.90;;;;;;5066032;28;20051;-63
2023/04/20 09:34:20;;;;;;;11.98;5.72;;;7.40;99.90;;;;;;5065662;28;20048;-61
2023/04/20 09:36:50;;;;;;;12.02;5.90;;;7.30;99.90;;;;;;5065229;28;20458;-64
2023/04/20 09:39:23;;;;;;;14.55;5.32;;;7.30;99.90;;;;;;5066894;28;20476;-59
2023/04/20 09:41:51;;;;;;;15.52;6.50;;;7.30;99.90;;;;;;5048995;28;20735;-62
2023/04/20 09:44:17;;;;;;;14.32;6.10;;;7.40;99.90;;;;;;5048965;28;20119;-63
2023/04/20 09:46:44;;;;;;;14.10;6.18;;;7.40;99.90;;;;;;5048985;28;20048;-62
2023/04/20 09:49:12;;;;;;;16.77;6.20;;;7.40;99.90;;;;;;5071272;28;20076;-62
2023/04/20 09:51:45;;;;;;;12.82;6.40;;;7.40;99.90;;;;;;5069149;28;20252;-62
2023/04/20 09:54:13;;;;;;;17.13;5.60;;;7.50;99.90;;;;;;5074482;28;20627;-62
2023/04/20 09:56:39;;;;;;;12.65;6.85;;;7.50;99.90;;;;;;5049066;28;20687;-63
2023/04/20 09:59:06;;;;;;;12.00;5.70;;;7.50;99.90;;;;;;5064787;28;20468;-62
2023/04/20 10:01:34;;;;;;;11.85;5.88;;;7.40;99.90;;;;;;5065308;28;20048;-63
2023/04/20 10:04:02;;;;;;;12.68;6.70;;;7.50;99.90;;;;;;5066793;28;20029;-62
2023/04/20 10:06:30;;;;;;;11.35;6.03;;;7.50;99.90;;;;;;5048835;28;20130;-62
2023/04/20 10:08:57;;;;;;;12.75;5.63;;;7.50;99.90;;;;;;5052046;28;20536;-61
2023/04/20 10:11:43;;;;;;;12.07;5.60;;;7.40;99.90;;;;;;5085840;28;20453;-62
2023/04/20 10:14:21;;;;;;;13.65;6.28;;;7.40;99.90;;;;;;5067822;28;20101;-63
2023/04/20 10:16:59;;;;;;;13.95;6.35;;;7.40;99.90;;;;;;5067252;28;20041;-62
2023/04/20 10:19:35;;;;;;;12.98;5.82;;;7.30;99.90;;;;;;5064924;28;20040;-61
2023/04/20 10:22:01;;;;;;;13.50;6.18;;;7.30;99.90;;;;;;5066473;28;20533;-63
2023/04/20 10:24:28;;;;;;;12.95;6.40;;;7.40;99.90;;;;;;5048507;28;20040;-64
2023/04/20 10:26:54;;;;;;;14.93;5.68;;;7.40;99.90;;;;;;5048476;28;20412;-63
2023/04/20 10:29:25;;;;;;;12.00;5.85;;;7.50;99.90;;;;;;5048116;28;20185;-64
2023/04/20 10:31:52;;;;;;;14.82;6.57;;;7.50;99.90;;;;;;5064742;28;20507;-64
2023/04/20 10:34:32;;;;;;;14.38;6.57;;;7.50;99.90;;;;;;5066646;28;20395;-62
2023/04/20 10:37:13;;;;;;;12.57;6.15;;;7.50;99.90;;;;;;5064786;28;20056;-62
2023/04/20 10:39:46;;;;;;;13.95;7.38;;;7.40;99.90;;;;;;5073945;28;20044;-64
2023/04/20 10:42:12;;;;;;;17.33;7.22;;;7.50;99.90;;;;;;5067791;28;20047;-65
2023/04/20 10:44:52;;;;;;;13.52;6.68;;;7.50;99.90;;;;;;5057713;28;20040;-61
2023/04/20 10:47:29;;;;;;;13.77;6.75;;;7.60;99.90;;;;;;5048474;28;20049;-62
2023/04/20 10:50:06;;;;;;;14.93;7.47;;;7.60;99.90;;;;;;5076333;28;20290;-61
2023/04/20 10:52:36;;;;;;;14.15;7.28;;;7.70;99.90;;;;;;5086049;28;20388;-61
2023/04/20 10:55:03;;;;;;;14.93;7.07;;;7.70;99.90;;;;;;5053878;28;20390;-62
2023/04/20 10:57:29;;;;;;;14.55;6.65;;;7.80;99.90;;;;;;5065440;28;20053;-64
2023/04/20 10:59:55;;;;;;;14.52;6.93;;;7.80;99.90;;;;;;5047222;28;20411;-62
2023/04/20 11:02:21;;;;;;;12.88;6.60;;;7.80;99.90;;;;;;5064529;28;20040;-61
2023/04/20 11:04:47;;;;;;;16.23;7.13;;;7.70;99.90;;;;;;5047735;28;20044;-62
2023/04/20 11:07:13;;;;;;;13.15;6.78;;;7.70;99.90;;;;;;5047956;28;20480;-63
2023/04/20 11:09:39;;;;;;;18.90;8.57;;;7.60;99.90;;;;;;5063950;28;20036;-63
2023/04/20 11:12:06;;;;;;;15.32;7.43;;;7.60;99.90;;;;;;5047828;28;20102;-63
2023/04/20 11:14:37;;;;;;;14.95;7.43;;;7.70;99.90;;;;;;5064201;28;20036;-63
2023/04/20 11:17:03;;;;;;;18.92;8.23;;;7.80;99.90;;;;;;5047879;28;20038;-61
2023/04/20 11:19:33;;;;;;;16.20;8.32;;;7.80;99.90;;;;;;5047402;28;20527;-63
2023/04/20 11:22:00;;;;;;;14.82;7.82;;;7.80;99.90;;;;;;5047386;28;20047;-60
2023/04/20 11:24:34;;;;;;;17.65;7.90;;;7.80;99.90;;;;;;5065336;28;20127;-63
2023/04/20 11:27:01;;;;;;;;;;;7.80;99.90;;;;;;5064403;28;20499;-62
2023/04/20 11:29:31;;;;;;;15.18;7.47;;;7.80;99.90;;;;;;5065003;28;19916;-62
2023/04/20 11:31:58;;;;;;;13.38;8.10;;;7.80;99.90;;;;;;5067685;28;20032;-62
2023/04/20 11:34:24;;;;;;;16.88;8.13;;;7.80;99.90;;;;;;5076907;28;20360;-62
2023/04/20 11:36:50;;;;;;;22.05;10.13;;;7.80;99.90;;;;;;5047182;28;20135;-64
2023/04/20 11:39:24;;;;;;;18.73;8.60;;;7.90;99.90;;;;;;5067114;28;20040;-60
2023/04/20 11:41:51;;;;;;;20.75;9.43;;;8.00;99.90;;;;;;5063868;28;20048;-60
2023/04/20 11:44:21;;;;;;;21.17;9.82;;;8.00;99.90;;;;;;5063791;28;20047;-61
2023/04/20 11:46:52;;;;;;;15.98;8.70;;;8.10;99.90;;;;;;5064874;28;20047;-63
2023/04/20 11:49:18;;;;;;;17.63;9.43;;;8.20;99.90;;;;;;5066979;28;20051;-62
2023/04/20 11:51:47;;;;;;;16.55;8.98;;;8.30;99.90;;;;;;5063944;28;20120;-66
2023/04/20 11:54:13;;;;;;;19.48;8.88;;;8.30;99.90;;;;;;5033496;28;20519;-65
2023/04/20 11:56:43;;;;;;;18.45;9.68;;;8.30;99.90;;;;;;5046889;28;20047;-62
2023/04/20 11:59:10;;;;;;;18.77;10.20;;;8.40;99.90;;;;;;5046338;28;20149;-61
2023/04/20 12:01:36;;;;;;;17.75;9.48;;;8.50;99.90;;;;;;5067917;28;20037;-61
2023/04/20 12:04:03;;;;;;;20.42;11.27;;;8.70;99.90;;;;;;5063966;28;20127;-61
2023/04/20 12:06:30;;;;;;;17.58;10.23;;;8.70;99.90;;;;;;5051359;28;20169;-61
2023/04/20 12:08:57;;;;;;;16.85;9.43;;;8.90;99.90;;;;;;5050739;28;20190;-61
2023/04/20 12:11:23;;;;;;;19.50;9.93;;;9.00;99.90;;;;;;5051239;28;20044;-65
2023/04/20 12:13:49;;;;;;;21.42;10.80;;;9.10;99.90;;;;;;5080522;28;20553;-63
2023/04/20 12:16:15;;;;;;;20.33;10.98;;;9.30;99.90;;;;;;5070674;28;20132;-64
2023/04/20 12:18:41;;;;;;;16.67;10.65;;;9.70;99.90;;;;;;5074271;28;20068;-65
2023/04/20 12:21:07;;;;;;;21.10;11.43;;;10.20;99.90;;;;;;5067187;28;20037;-63
2023/04/20 12:23:35;;;;;;;15.23;9.75;;;10.40;99.90;;;;;;5050666;28;20037;-62
2023/04/20 12:26:04;;;;;;;16.45;9.63;;;10.40;99.90;;;;;;5087613;28;20580;-64
2023/04/20 12:28:31;;;;;;;15.80;10.05;;;10.30;99.90;;;;;;5074908;28;20188;-64
2023/04/20 12:30:57;;;;;;;16.13;10.13;;;10.40;99.90;;;;;;5081854;28;20140;-62
2023/04/20 12:33:23;;;;;;;17.60;9.75;;;10.50;99.90;;;;;;5087540;28;20076;-63
2023/04/20 12:35:49;;;;;;;16.38;10.35;;;10.20;99.90;;;;;;5067811;28;20497;-61
2023/04/20 12:38:16;;;;;;;16.90;10.40;;;10.40;99.90;;;;;;5051654;28;20052;-68
2023/04/20 12:40:41;;;;;;;15.57;9.25;;;10.40;99.90;;;;;;5066473;28;20507;-65
2023/04/20 12:43:07;;;;;;;16.67;10.52;;;10.30;99.90;;;;;;5070836;28;20215;-62
2023/04/20 12:45:33;;;;;;;15.13;9.05;;;10.50;99.90;;;;;;5039441;28;20040;-64
2023/04/20 12:47:59;;;;;;;14.68;9.38;;;11.00;99.90;;;;;;5067028;28;20391;-63
2023/04/20 12:50:25;;;;;;;14.98;8.40;;;11.40;99.90;;;;;;5067847;28;20032;-69